createdAt,value
2023-03-19T00:02:41.558Z,56.61
2023-03-19T00:07:46.506Z,56.50
2023-03-19T00:12:50.913Z,56.72
2023-03-19T00:17:57.011Z,56.85
2023-03-19T00:23:01.404Z,56.68
2023-03-19T00:28:05.371Z,57.12
2023-03-19T00:33:09.578Z,57.77
2023-03-19T00:38:13.567Z,57.96
2023-03-19T00:43:17.863Z,58.16
2023-03-19T00:48:22.717Z,58.62
2023-03-19T00:53:26.656Z,58.72
2023-03-19T00:58:31.921Z,58.78
2023-03-19T01:03:37.087Z,58.92
2023-03-19T01:08:41.879Z,58.95
2023-03-19T01:13:46.050Z,59.13
2023-03-19T01:18:50.388Z,59.13
2023-03-19T01:23:54.646Z,59.19
2023-03-19T01:28:59.399Z,59.35
2023-03-19T01:34:04.659Z,59.49
2023-03-19T01:39:08.963Z,59.49
2023-03-19T01:44:29.358Z,59.50
2023-03-19T01:49:33.817Z,59.37
2023-03-19T01:54:37.656Z,59.67
2023-03-19T01:59:49.430Z,59.53
2023-03-19T02:05:11.802Z,59.63
2023-03-19T02:10:18.431Z,59.61
2023-03-19T02:15:22.876Z,59.69
2023-03-19T02:20:45.824Z,60.00
2023-03-19T02:26:08.703Z,59.69
2023-03-19T02:31:14.849Z,59.87
2023-03-19T02:36:20.735Z,59.92
2023-03-19T02:41:26.791Z,59.88
2023-03-19T02:46:31.607Z,59.90
2023-03-19T02:51:35.489Z,59.91
2023-03-19T02:56:39.546Z,60.41
2023-03-19T03:01:43.625Z,60.25
2023-03-19T03:06:47.604Z,60.44
2023-03-19T03:11:52.132Z,60.51
2023-03-19T03:16:57.837Z,60.62
2023-03-19T03:22:01.779Z,60.72
2023-03-19T03:27:06.217Z,60.71
2023-03-19T03:32:10.826Z,60.89
2023-03-19T03:37:14.550Z,61.20
2023-03-19T03:42:19.298Z,61.04
2023-03-19T03:47:23.121Z,61.10
2023-03-19T03:52:31.871Z,60.91
2023-03-19T03:57:36.712Z,61.16
2023-03-19T04:02:40.816Z,61.04
2023-03-19T04:07:46.282Z,61.12
2023-03-19T04:12:50.815Z,61.23
2023-03-19T04:17:54.911Z,61.47
2023-03-19T04:22:58.884Z,61.23
2023-03-19T04:28:04.228Z,61.19
2023-03-19T04:33:08.127Z,61.51
2023-03-19T04:38:12.358Z,61.58
2023-03-19T04:43:16.257Z,61.75
2023-03-19T04:48:19.882Z,61.62
2023-03-19T04:53:25.197Z,61.53
2023-03-19T04:58:29.173Z,61.46
2023-03-19T05:03:33.022Z,61.57
2023-03-19T05:08:37.166Z,61.64
2023-03-19T05:13:43.266Z,61.73
2023-03-19T05:18:47.978Z,61.46
2023-03-19T05:23:55.176Z,61.96
2023-03-19T05:29:01.051Z,61.69
2023-03-19T05:34:06.505Z,61.61
2023-03-19T05:39:11.071Z,61.66
2023-03-19T05:44:15.080Z,61.75
2023-03-19T05:49:18.812Z,61.85
2023-03-19T05:54:23.249Z,61.86
2023-03-19T05:59:27.827Z,61.84
2023-03-19T06:04:32.325Z,61.69
2023-03-19T06:09:36.148Z,61.72
2023-03-19T06:14:41.576Z,61.78
2023-03-19T06:19:46.871Z,61.73
2023-03-19T06:24:50.804Z,61.61
2023-03-19T06:29:54.735Z,61.49
2023-03-19T06:34:58.762Z,61.34
2023-03-19T06:40:04.034Z,61.21
2023-03-19T06:45:09.575Z,60.98
2023-03-19T06:50:15.369Z,60.83
2023-03-19T06:55:20.963Z,60.52
2023-03-19T07:00:25.997Z,60.26
2023-03-19T07:05:30.333Z,60.16
2023-03-19T07:10:34.945Z,60.04
2023-03-19T07:15:39.814Z,59.54
2023-03-19T07:20:44.154Z,59.37
2023-03-19T07:25:49.043Z,59.21
2023-03-19T07:30:54.505Z,58.97
2023-03-19T07:35:58.516Z,58.59
2023-03-19T07:41:03.197Z,58.02
2023-03-19T07:46:08.457Z,57.58
2023-03-19T07:51:13.360Z,57.51
2023-03-19T07:56:17.705Z,57.46
2023-03-19T08:01:22.032Z,56.78
2023-03-19T08:06:27.188Z,56.47
2023-03-19T08:11:31.720Z,55.45
2023-03-19T08:16:36.638Z,54.92
2023-03-19T08:21:40.725Z,54.44
2023-03-19T08:26:45.271Z,54.21
2023-03-19T08:31:49.397Z,52.61
2023-03-19T08:36:53.531Z,52.63
2023-03-19T08:41:58.471Z,51.04
2023-03-19T08:47:02.218Z,51.08
2023-03-19T08:52:07.178Z,50.42
2023-03-19T08:57:11.671Z,49.55
2023-03-19T09:02:15.869Z,49.81
2023-03-19T09:07:20.191Z,48.78
2023-03-19T09:12:25.618Z,47.10
2023-03-19T09:17:31.645Z,47.45
2023-03-19T09:22:35.645Z,47.24
2023-03-19T09:27:39.878Z,46.58
2023-03-19T09:32:43.614Z,44.15
2023-03-19T09:37:49.326Z,43.31
2023-03-19T09:43:27.225Z,43.13
2023-03-19T09:49:02.408Z,42.91
2023-03-19T09:54:27.702Z,43.49
2023-03-19T09:59:34.382Z,44.01
2023-03-19T10:04:59.106Z,44.19
2023-03-19T10:10:39.276Z,43.61
2023-03-19T10:15:46.061Z,44.06
2023-03-19T10:21:02.921Z,43.19
2023-03-19T10:26:14.395Z,42.99
2023-03-19T10:31:38.193Z,42.12
2023-03-19T10:36:42.208Z,42.03
2023-03-19T10:42:10.950Z,41.25
2023-03-19T10:47:18.021Z,41.16
2023-03-19T10:52:33.762Z,38.12
2023-03-19T10:57:44.032Z,38.64
2023-03-19T11:02:54.431Z,38.17
2023-03-19T11:08:35.018Z,38.30
2023-03-19T11:13:39.534Z,36.94
2023-03-19T11:18:50.067Z,35.56
2023-03-19T11:24:03.162Z,34.77
2023-03-19T11:29:07.800Z,34.70
2023-03-19T11:34:52.587Z,35.88
2023-03-19T11:40:41.163Z,36.34
2023-03-19T11:46:06.760Z,34.50
2023-03-19T11:51:28.703Z,35.51
2023-03-19T11:56:49.280Z,35.85
2023-03-19T12:02:43.397Z,32.89
2023-03-19T12:08:30.326Z,33.36
2023-03-19T12:13:54.321Z,33.64
2023-03-19T12:19:30.350Z,32.86
2023-03-19T12:25:24.221Z,31.29
2023-03-19T12:30:42.694Z,31.23
2023-03-19T12:35:50.830Z,31.73
2023-03-19T12:41:08.147Z,30.58
2023-03-19T12:46:19.231Z,32.28
2023-03-19T12:51:31.787Z,32.09
2023-03-19T12:57:00.704Z,32.27
2023-03-19T13:02:29.525Z,31.77
2023-03-19T13:08:04.257Z,29.44
2023-03-19T13:13:41.160Z,29.43
2023-03-19T13:19:05.447Z,30.22
2023-03-19T13:24:32.431Z,30.42
2023-03-19T13:29:39.503Z,30.87
2023-03-19T13:51:05.288Z,30.55
2023-03-19T13:56:29.202Z,31.15
2023-03-19T14:01:40.203Z,31.93
2023-03-19T14:06:56.105Z,31.99
2023-03-19T14:12:18.837Z,31.77
2023-03-19T14:17:31.780Z,32.25
2023-03-19T14:22:57.309Z,32.70
2023-03-19T14:28:11.675Z,32.56
2023-03-19T14:33:47.783Z,31.35
2023-03-19T14:39:29.944Z,31.82
2023-03-19T14:45:18.787Z,32.38
2023-03-19T14:50:36.673Z,32.56
2023-03-19T14:55:42.775Z,32.80
2023-03-19T15:00:54.097Z,32.54
2023-03-19T15:06:01.703Z,33.19
2023-03-19T15:11:16.523Z,33.82
2023-03-19T15:16:38.704Z,34.59
2023-03-19T15:21:42.424Z,34.77
2023-03-19T15:26:47.240Z,35.46
2023-03-19T15:32:03.779Z,35.97
2023-03-19T15:37:14.010Z,36.36
2023-03-19T15:42:23.203Z,36.67
2023-03-19T15:47:33.697Z,37.26
2023-03-19T15:52:43.650Z,37.66
2023-03-19T15:57:49.188Z,37.75
2023-03-19T16:02:53.992Z,37.98
2023-03-19T16:08:09.274Z,38.31
2023-03-19T16:13:39.081Z,38.67
2023-03-19T16:19:03.217Z,39.29
2023-03-19T16:24:28.023Z,39.89
2023-03-19T16:29:44.651Z,40.59
2023-03-19T16:34:54.098Z,41.82
2023-03-19T16:40:02.033Z,43.22
2023-03-19T16:45:15.178Z,43.77
2023-03-19T16:50:41.424Z,44.40
2023-03-19T16:55:46.773Z,45.28
2023-03-19T17:00:50.293Z,45.66
2023-03-19T17:05:54.737Z,45.63
2023-03-19T17:10:59.137Z,45.46
2023-03-19T17:16:07.810Z,45.70
2023-03-19T17:21:16.141Z,46.16
2023-03-19T17:26:26.261Z,45.96
2023-03-19T17:31:33.755Z,47.42
2023-03-19T17:36:38.324Z,47.53
2023-03-19T17:41:42.067Z,47.97
2023-03-19T17:46:53.444Z,48.89
2023-03-19T17:51:58.954Z,48.29
2023-03-19T17:57:04.626Z,48.77
2023-03-19T18:02:30.084Z,49.44
2023-03-19T18:07:35.612Z,49.47
2023-03-19T18:12:40.078Z,50.71
2023-03-19T18:17:52.713Z,50.80
2023-03-19T18:22:57.463Z,51.09
2023-03-19T18:28:06.446Z,51.83
2023-03-19T18:33:26.589Z,52.59
2023-03-19T18:38:31.645Z,52.36
2023-03-19T18:43:36.474Z,52.52
2023-03-19T18:48:42.689Z,52.81
2023-03-19T18:53:48.902Z,53.36
2023-03-19T18:58:56.350Z,53.65
2023-03-19T19:04:02.040Z,54.01
2023-03-19T19:09:07.081Z,54.53
2023-03-19T19:14:22.464Z,55.45
2023-03-19T19:19:29.313Z,54.99
2023-03-19T19:24:34.011Z,55.00
2023-03-19T19:29:38.505Z,55.40
2023-03-19T19:34:42.531Z,55.90
2023-03-19T19:39:47.280Z,55.76
2023-03-19T19:45:04.172Z,56.60
2023-03-19T19:50:18.833Z,57.24
2023-03-19T19:55:26.396Z,57.93
2023-03-19T20:00:32.212Z,57.81
2023-03-19T20:05:36.532Z,57.87
2023-03-19T20:10:41.381Z,57.99
2023-03-19T20:15:45.212Z,58.39
2023-03-19T20:20:49.947Z,58.05
2023-03-19T20:25:55.376Z,57.80
2023-03-19T20:31:00.896Z,58.55
2023-03-19T20:36:05.462Z,58.99
2023-03-19T20:41:21.276Z,58.93
2023-03-19T20:46:25.408Z,60.00
2023-03-19T20:51:31.949Z,60.18
2023-03-19T20:56:39.488Z,60.05
2023-03-19T21:01:44.243Z,60.61
2023-03-19T21:06:53.478Z,59.12
2023-03-19T21:11:58.115Z,59.70
2023-03-19T21:17:01.943Z,61.05
2023-03-19T21:22:07.085Z,61.16
2023-03-19T21:27:32.315Z,61.07
2023-03-19T21:32:36.087Z,61.37
2023-03-19T21:37:42.175Z,61.32
2023-03-19T21:42:54.890Z,61.61
2023-03-19T21:48:37.188Z,66.77
2023-03-19T21:53:41.933Z,67.78
2023-03-19T21:58:45.799Z,65.90
2023-03-19T22:03:50.335Z,65.46
2023-03-19T22:08:54.984Z,64.65
2023-03-19T22:14:18.029Z,56.11
2023-03-19T22:19:22.816Z,56.51
2023-03-19T22:24:26.689Z,57.89
2023-03-19T22:29:33.387Z,59.12
2023-03-19T22:34:37.208Z,60.72
2023-03-19T22:39:40.943Z,60.51
2023-03-19T22:44:45.115Z,61.70
2023-03-19T22:49:49.515Z,66.35
2023-03-19T22:54:54.085Z,67.46
2023-03-19T22:59:57.885Z,61.43
2023-03-19T23:05:13.190Z,60.09
2023-03-19T23:10:21.634Z,60.20
2023-03-19T23:15:31.753Z,60.50
2023-03-19T23:20:35.914Z,59.70
2023-03-19T23:25:42.700Z,59.67
2023-03-19T23:30:48.969Z,60.06
2023-03-19T23:35:56.789Z,59.88
2023-03-19T23:41:01.562Z,59.23
2023-03-19T23:46:06.215Z,57.35
2023-03-19T23:51:15.244Z,59.07
2023-03-19T23:56:28.299Z,60.21
